Strona główna
METAR-TAF:

METAR-TAF

Lotnisko :

Pian Rosa, Włochy

Szerokość geograficzna: 45-56N, Długość geograficzna: 007-42E, wysokość: 3480 m

Aktualna obserwacja pogody

Raport powstał 1 godzina i 13 minut temu, godzina 10:55 UTC
Wiatr 34 kt od południe
Temperatura -4°C
Wilgotność 74%
Ciśnienie 1016 hPa
Widzialność 10 km lub więcej
Rozproszone chmury na wysokości 2500 ft
Rozproszone chmury na wysokości 4000 ft

METAR: LIMH 161055Z 19034KT 9999 SCT025 SCT040 M04/M08 Q1016 RMK BKN MON LIB VAL S CLD SCT VIS MIN 9999

czas: 13:08 (12:08 UTC)


TAF: brakujący

Obserwacja i prognoza pogody dla ponad 4000 lotnisk (raport METAR i TAF).

Dostępne stacje oznaczono żółtymi i czerwonymi punktami na mapie.

Najedź kursorem aby zobaczyć nazwę stacji.

Kliknij aby zobaczyć obserwacje i prognozy pogody.

Aby zmienić mapę: kliknij na zielony przycisk z czarnym krzyżykiem, aby powiększyć; na zielony przycisk z myślnikiem, aby pomniejszyć; na zielone strzałki, aby przejść do map sąsiednich.


METAR-TAF: